createdAt,value
2019-01-17T00:03:36.571Z,5.88
2019-01-17T00:07:54.906Z,5.89
2019-01-17T00:12:03.904Z,5.92
2019-01-17T00:16:22.255Z,5.97
2019-01-17T00:20:44.865Z,5.99
2019-01-17T00:25:06.084Z,6.00
2019-01-17T00:29:27.761Z,6.00
2019-01-17T00:33:36.789Z,6.03
2019-01-17T00:37:52.377Z,6.05
2019-01-17T00:41:58.690Z,6.07
2019-01-17T00:46:13.571Z,6.10
2019-01-17T00:50:19.983Z,6.11
2019-01-17T00:54:42.527Z,6.13
2019-01-17T00:58:54.726Z,6.14
2019-01-17T01:03:06.922Z,6.12
2019-01-17T01:07:13.258Z,6.09
2019-01-17T01:11:19.594Z,6.05
2019-01-17T01:15:42.277Z,5.97
2019-01-17T01:20:05.084Z,5.93
2019-01-17T01:24:15.434Z,5.86
2019-01-17T01:28:25.240Z,5.84
2019-01-17T01:32:43.750Z,5.85
2019-01-17T01:36:50.082Z,5.83
2019-01-17T01:41:05.675Z,5.86
2019-01-17T01:45:14.996Z,5.89
2019-01-17T01:49:24.107Z,5.91
2019-01-17T01:53:28.796Z,5.96
2019-01-17T01:57:33.506Z,6.01
2019-01-17T02:01:38.193Z,6.00
2019-01-17T02:05:42.889Z,5.98
2019-01-17T02:09:47.622Z,6.04
2019-01-17T02:13:52.312Z,6.05
2019-01-17T02:17:56.999Z,6.06
2019-01-17T02:22:01.745Z,6.10
2019-01-17T02:26:06.468Z,6.09
2019-01-17T02:30:12.219Z,6.09
2019-01-17T02:34:16.918Z,6.04
2019-01-17T02:38:21.605Z,6.00
2019-01-17T02:42:26.294Z,6.02
2019-01-17T02:46:30.976Z,6.00
2019-01-17T02:50:35.649Z,5.92
2019-01-17T02:54:40.327Z,5.93
2019-01-17T02:58:45.013Z,5.92
2019-01-17T03:02:49.704Z,5.93
2019-01-17T03:06:54.391Z,5.87
2019-01-17T03:10:59.086Z,6.04
2019-01-17T03:15:05.198Z,5.98
2019-01-17T03:19:09.877Z,5.91
2019-01-17T03:23:14.575Z,5.89
2019-01-17T03:27:19.308Z,5.86
2019-01-17T03:31:23.944Z,5.82
2019-01-17T03:35:28.620Z,5.79
2019-01-17T03:39:33.310Z,5.74
2019-01-17T03:43:37.985Z,5.69
2019-01-17T03:47:42.665Z,5.69
2019-01-17T03:51:47.357Z,5.67
2019-01-17T03:55:52.305Z,5.63
2019-01-17T03:59:56.986Z,5.63
2019-01-17T04:04:01.654Z,5.64
2019-01-17T04:08:06.328Z,5.67
2019-01-17T04:12:11.028Z,5.68
2019-01-17T04:16:15.717Z,5.66
2019-01-17T04:20:20.409Z,5.66
2019-01-17T04:24:25.066Z,5.65
2019-01-17T04:28:29.769Z,5.63
2019-01-17T04:32:34.457Z,5.64
2019-01-17T04:36:39.134Z,5.66
2019-01-17T04:40:43.821Z,5.69
2019-01-17T04:44:48.502Z,5.69
2019-01-17T04:48:53.198Z,5.70
2019-01-17T04:52:57.884Z,5.68
2019-01-17T04:57:02.568Z,5.67
2019-01-17T05:01:07.265Z,5.66
2019-01-17T05:05:11.952Z,5.67
2019-01-17T05:09:16.628Z,5.64
2019-01-17T05:13:21.306Z,5.61
2019-01-17T05:17:26.010Z,5.62
2019-01-17T05:21:30.713Z,5.63
2019-01-17T05:25:35.389Z,5.65
2019-01-17T05:29:40.080Z,5.65
2019-01-17T05:33:44.763Z,5.66
2019-01-17T05:37:49.448Z,5.66
2019-01-17T05:41:54.129Z,5.68
2019-01-17T05:45:58.822Z,5.69
2019-01-17T05:50:06.111Z,5.72
2019-01-17T05:54:10.815Z,5.75
2019-01-17T05:58:15.510Z,5.76
2019-01-17T06:02:20.182Z,5.76
2019-01-17T06:06:24.868Z,5.78
2019-01-17T06:10:29.545Z,5.81
2019-01-17T06:14:34.239Z,5.82
2019-01-17T06:18:38.928Z,5.82
2019-01-17T06:22:43.597Z,5.84
2019-01-17T06:26:48.286Z,5.90
2019-01-17T06:30:52.974Z,5.96
2019-01-17T06:34:57.669Z,6.00
2019-01-17T06:39:02.353Z,6.00
2019-01-17T06:43:07.042Z,6.00
2019-01-17T06:47:11.729Z,6.01
2019-01-17T06:51:16.399Z,6.04
2019-01-17T06:55:21.088Z,6.15
2019-01-17T06:59:25.776Z,6.24
2019-01-17T07:03:30.449Z,6.36
2019-01-17T07:07:35.175Z,6.42
2019-01-17T07:11:39.896Z,6.42
2019-01-17T07:15:44.625Z,6.40
2019-01-17T07:19:49.555Z,6.37
2019-01-17T07:23:54.261Z,6.35
2019-01-17T07:27:58.990Z,6.35
2019-01-17T07:32:03.699Z,6.35
2019-01-17T07:36:08.433Z,6.39
2019-01-17T07:40:13.514Z,6.39
2019-01-17T07:44:18.201Z,6.38
2019-01-17T07:48:22.887Z,6.43
2019-01-17T07:52:27.615Z,6.28
2019-01-17T07:56:32.300Z,6.27
2019-01-17T08:00:37.010Z,6.33
2019-01-17T08:04:41.801Z,6.38
2019-01-17T08:08:46.488Z,6.42
2019-01-17T08:12:51.164Z,6.45
2019-01-17T08:16:55.842Z,6.47
2019-01-17T08:21:00.509Z,6.43
2019-01-17T08:25:08.380Z,6.28
2019-01-17T08:29:13.054Z,6.31
2019-01-17T08:33:17.730Z,6.25
2019-01-17T08:37:22.403Z,6.20
2019-01-17T08:41:27.082Z,6.19
2019-01-17T08:45:31.768Z,6.28
2019-01-17T08:49:36.454Z,6.46
2019-01-17T08:53:41.136Z,6.58
2019-01-17T08:57:45.819Z,6.66
2019-01-17T09:01:50.476Z,6.68
2019-01-17T09:05:55.160Z,6.73
2019-01-17T09:09:59.831Z,7.01
2019-01-17T09:14:04.882Z,7.12
2019-01-17T09:18:09.553Z,7.11
2019-01-17T09:22:14.232Z,7.08
2019-01-17T09:26:19.896Z,7.02
2019-01-17T09:30:24.573Z,7.05
2019-01-17T09:34:29.252Z,7.07
2019-01-17T09:38:33.940Z,7.12
2019-01-17T09:42:38.602Z,7.11
2019-01-17T09:46:43.286Z,7.14
2019-01-17T09:50:47.971Z,7.04
2019-01-17T09:54:52.651Z,7.16
2019-01-17T09:58:57.340Z,7.30
2019-01-17T10:03:02.007Z,7.49
2019-01-17T10:07:06.697Z,7.56
2019-01-17T10:11:11.381Z,7.67
2019-01-17T10:15:28.433Z,7.68
2019-01-17T10:19:42.327Z,7.64
2019-01-17T10:23:52.929Z,7.81
2019-01-17T10:28:17.145Z,7.74
2019-01-17T10:32:39.443Z,7.52
2019-01-17T10:37:04.025Z,7.54
2019-01-17T10:41:17.549Z,7.73
2019-01-17T10:45:36.807Z,7.65
2019-01-17T10:49:47.460Z,7.55
2019-01-17T10:54:10.238Z,7.51
2019-01-17T10:58:23.854Z,7.50
2019-01-17T11:02:58.806Z,7.54
2019-01-17T11:07:15.812Z,7.78
2019-01-17T11:11:35.053Z,8.07
2019-01-17T11:16:02.526Z,7.98
2019-01-17T11:20:31.892Z,7.83
2019-01-17T11:24:42.344Z,7.75
2019-01-17T11:28:56.139Z,7.81
2019-01-17T11:33:23.406Z,7.94
2019-01-17T11:37:34.077Z,8.13
2019-01-17T11:41:47.699Z,8.19
2019-01-17T11:46:04.472Z,8.22
2019-01-17T11:50:15.381Z,8.24
2019-01-17T11:54:47.218Z,8.23
2019-01-17T11:59:13.339Z,8.10
2019-01-17T12:03:33.271Z,7.95
2019-01-17T12:07:37.953Z,7.95
2019-01-17T12:11:42.633Z,7.86
2019-01-17T12:15:47.638Z,7.86
2019-01-17T12:19:52.326Z,7.92
2019-01-17T12:23:57.191Z,7.92
2019-01-17T12:28:01.879Z,7.90
2019-01-17T12:32:06.561Z,7.88
2019-01-17T12:36:11.242Z,7.72
2019-01-17T12:40:15.934Z,7.67
2019-01-17T12:44:20.722Z,7.79
2019-01-17T12:48:25.410Z,7.77
2019-01-17T12:52:30.099Z,7.82
2019-01-17T12:56:34.771Z,7.79
2019-01-17T13:00:39.453Z,7.70
2019-01-17T13:04:44.133Z,7.64
2019-01-17T13:08:48.815Z,7.64
2019-01-17T13:12:53.480Z,7.65
2019-01-17T13:16:58.162Z,7.65
2019-01-17T13:21:02.844Z,7.66
2019-01-17T13:25:13.656Z,7.65
2019-01-17T13:29:18.341Z,7.70
2019-01-17T13:33:23.009Z,7.66
2019-01-17T13:37:27.686Z,7.65
2019-01-17T13:41:32.366Z,7.62
2019-01-17T13:45:37.043Z,7.58
2019-01-17T13:49:41.727Z,7.47
2019-01-17T13:53:46.394Z,7.34
2019-01-17T13:57:51.069Z,7.33
2019-01-17T14:01:55.739Z,7.28
2019-01-17T14:06:00.418Z,7.26
2019-01-17T14:10:10.594Z,7.30
2019-01-17T14:14:15.262Z,7.35
2019-01-17T14:18:19.941Z,7.32
2019-01-17T14:22:24.629Z,7.28
2019-01-17T14:26:29.303Z,6.79
2019-01-17T14:30:34.648Z,6.10
2019-01-17T14:34:39.319Z,5.49
2019-01-17T14:38:45.383Z,5.21
2019-01-17T14:42:50.160Z,5.01
2019-01-17T14:46:54.840Z,4.89
2019-01-17T14:50:59.518Z,4.90
2019-01-17T14:55:06.630Z,4.91
2019-01-17T14:59:11.315Z,4.85
2019-01-17T15:03:15.994Z,4.89
2019-01-17T15:07:20.676Z,4.84
2019-01-17T15:11:26.168Z,4.81
2019-01-17T15:15:30.839Z,4.77
2019-01-17T15:19:35.515Z,4.75
2019-01-17T15:23:40.189Z,4.73
2019-01-17T15:27:44.873Z,4.67
2019-01-17T15:31:49.555Z,4.63
2019-01-17T15:35:54.232Z,4.64
2019-01-17T15:39:58.915Z,4.56
2019-01-17T15:44:03.603Z,4.55
2019-01-17T15:48:08.296Z,4.46
2019-01-17T15:52:12.973Z,4.45
2019-01-17T15:56:17.640Z,4.42
2019-01-17T16:00:25.218Z,4.39
2019-01-17T16:04:29.891Z,4.32
2019-01-17T16:08:34.575Z,4.34
2019-01-17T16:12:39.275Z,4.40
2019-01-17T16:16:48.260Z,4.45
2019-01-17T16:20:50.339Z,4.52
2019-01-17T16:24:55.009Z,4.52
2019-01-17T16:28:59.690Z,4.45
2019-01-17T16:33:04.366Z,4.38
2019-01-17T16:37:09.042Z,4.35
2019-01-17T16:41:13.711Z,4.39
2019-01-17T16:45:20.732Z,4.51
2019-01-17T16:49:26.486Z,4.37
2019-01-17T16:53:31.212Z,4.39
2019-01-17T16:57:35.878Z,4.29
2019-01-17T17:01:40.559Z,4.31
2019-01-17T17:05:45.237Z,4.40
2019-01-17T17:09:49.911Z,4.36
2019-01-17T17:13:54.589Z,4.24
2019-01-17T17:17:59.259Z,4.04
2019-01-17T17:22:03.953Z,3.94
2019-01-17T17:26:08.624Z,3.85
2019-01-17T17:30:16.302Z,3.80
2019-01-17T17:34:20.980Z,3.73
2019-01-17T17:38:25.660Z,3.72
2019-01-17T17:42:30.328Z,3.68
2019-01-17T17:46:35.003Z,3.67
2019-01-17T17:50:39.715Z,3.66
2019-01-17T17:54:44.397Z,3.58
2019-01-17T17:58:49.067Z,3.53
2019-01-17T18:02:54.325Z,3.48
2019-01-17T18:06:59.017Z,3.42
2019-01-17T18:11:03.709Z,3.35
2019-01-17T18:15:11.597Z,3.15
2019-01-17T18:19:16.264Z,3.12
2019-01-17T18:23:20.939Z,3.39
2019-01-17T18:27:25.615Z,3.32
2019-01-17T18:31:30.291Z,3.18
2019-01-17T18:35:34.958Z,3.12
2019-01-17T18:39:39.638Z,3.11
2019-01-17T18:43:44.314Z,3.03
2019-01-17T18:47:48.991Z,3.04
2019-01-17T18:51:53.670Z,3.06
2019-01-17T18:55:58.399Z,3.03
2019-01-17T19:00:04.708Z,2.97
2019-01-17T19:04:09.547Z,2.89
2019-01-17T19:08:14.222Z,2.86
2019-01-17T19:12:18.904Z,2.87
2019-01-17T19:16:23.583Z,2.91
2019-01-17T19:20:28.257Z,2.81
2019-01-17T19:24:32.926Z,2.63
2019-01-17T19:28:37.607Z,2.50
2019-01-17T19:32:42.288Z,2.46
2019-01-17T19:36:46.950Z,2.52
2019-01-17T19:40:51.630Z,2.44
2019-01-17T19:44:56.302Z,2.34
2019-01-17T19:49:00.982Z,2.26
2019-01-17T19:53:05.730Z,2.20
2019-01-17T19:57:10.403Z,2.13
2019-01-17T20:01:15.263Z,2.08
2019-01-17T20:05:22.284Z,2.05
2019-01-17T20:09:26.967Z,2.03
2019-01-17T20:13:31.654Z,2.01
2019-01-17T20:17:36.318Z,2.00
2019-01-17T20:21:41.009Z,2.00
2019-01-17T20:25:45.693Z,1.97
2019-01-17T20:29:50.370Z,1.97
2019-01-17T20:33:55.045Z,1.96
2019-01-17T20:37:59.721Z,1.95
2019-01-17T20:42:04.462Z,1.92
2019-01-17T20:46:09.144Z,1.92
2019-01-17T20:50:19.756Z,1.94
2019-01-17T20:54:24.439Z,1.96
2019-01-17T20:58:29.173Z,2.04
2019-01-17T21:02:33.854Z,2.18
2019-01-17T21:06:38.530Z,2.26
2019-01-17T21:10:43.214Z,2.22
2019-01-17T21:14:47.892Z,2.31
2019-01-17T21:18:52.557Z,2.47
2019-01-17T21:22:57.230Z,2.42
2019-01-17T21:27:01.910Z,2.41
2019-01-17T21:31:06.584Z,2.32
2019-01-17T21:35:11.734Z,2.20
2019-01-17T21:39:16.395Z,2.13
2019-01-17T21:43:21.070Z,2.06
2019-01-17T21:47:25.741Z,2.05
2019-01-17T21:51:30.417Z,2.06
2019-01-17T21:55:35.089Z,2.06
2019-01-17T21:59:39.753Z,2.09
2019-01-17T22:03:44.440Z,2.20
2019-01-17T22:07:49.179Z,2.29
2019-01-17T22:11:53.861Z,2.32
2019-01-17T22:15:58.534Z,2.29
2019-01-17T22:20:03.766Z,2.28
2019-01-17T22:24:08.442Z,2.27
2019-01-17T22:28:13.122Z,2.26
2019-01-17T22:32:17.801Z,2.28
2019-01-17T22:36:22.474Z,2.23
2019-01-17T22:40:27.148Z,2.22
2019-01-17T22:44:33.072Z,2.20
2019-01-17T22:48:37.755Z,2.24
2019-01-17T22:52:42.432Z,2.24
2019-01-17T22:56:47.111Z,2.16
2019-01-17T23:00:56.673Z,2.17
2019-01-17T23:05:01.348Z,2.15
2019-01-17T23:09:06.897Z,2.10
2019-01-17T23:13:12.537Z,2.04
2019-01-17T23:17:17.214Z,1.99
2019-01-17T23:21:21.880Z,1.87
2019-01-17T23:25:26.552Z,1.77
2019-01-17T23:29:31.230Z,1.74
2019-01-17T23:33:35.909Z,1.73
2019-01-17T23:37:40.586Z,1.70
2019-01-17T23:41:45.253Z,1.66
2019-01-17T23:45:49.922Z,1.63
2019-01-17T23:49:54.598Z,1.55
2019-01-17T23:53:59.274Z,1.51
2019-01-17T23:58:03.951Z,1.45
